sensor_id;sensor_type;location;lat;lon;timestamp;temperature;humidity
45137;DHT22;30894;51.740;19.498;2024-01-25T00:00:21;5.60;99.90
45137;DHT22;30894;51.740;19.498;2024-01-25T00:03:07;5.50;99.90
45137;DHT22;30894;51.740;19.498;2024-01-25T00:05:33;5.60;99.90
45137;DHT22;30894;51.740;19.498;2024-01-25T00:08:05;5.50;99.90
45137;DHT22;30894;51.740;19.498;2024-01-25T00:10:33;5.60;99.90
45137;DHT22;30894;51.740;19.498;2024-01-25T00:13:02;5.70;99.90
45137;DHT22;30894;51.740;19.498;2024-01-25T00:15:29;5.70;99.90
45137;DHT22;30894;51.740;19.498;2024-01-25T00:18:01;5.70;99.90
45137;DHT22;30894;51.740;19.498;2024-01-25T00:20:28;5.70;99.90
45137;DHT22;30894;51.740;19.498;2024-01-25T00:22:54;5.80;99.90
45137;DHT22;30894;51.740;19.498;2024-01-25T00:25:24;5.80;99.90
45137;DHT22;30894;51.740;19.498;2024-01-25T00:27:50;5.80;99.90
45137;DHT22;30894;51.740;19.498;2024-01-25T00:30:17;5.70;99.90
45137;DHT22;30894;51.740;19.498;2024-01-25T00:32:50;5.70;99.90
45137;DHT22;30894;51.740;19.498;2024-01-25T00:35:16;5.70;99.90
45137;DHT22;30894;51.740;19.498;2024-01-25T00:37:45;5.60;99.90
45137;DHT22;30894;51.740;19.498;2024-01-25T00:40:12;5.60;99.90
45137;DHT22;30894;51.740;19.498;2024-01-25T00:42:42;5.50;99.90
45137;DHT22;30894;51.740;19.498;2024-01-25T00:45:10;5.50;99.90
45137;DHT22;30894;51.740;19.498;2024-01-25T00:47:43;5.50;99.90
45137;DHT22;30894;51.740;19.498;2024-01-25T00:50:09;5.50;99.90
45137;DHT22;30894;51.740;19.498;2024-01-25T00:52:36;5.50;99.90
45137;DHT22;30894;51.740;19.498;2024-01-25T00:55:05;5.60;99.90
45137;DHT22;30894;51.740;19.498;2024-01-25T00:57:33;5.60;99.90
45137;DHT22;30894;51.740;19.498;2024-01-25T00:59:59;5.70;99.90
45137;DHT22;30894;51.740;19.498;2024-01-25T01:02:27;5.80;99.90
45137;DHT22;30894;51.740;19.498;2024-01-25T01:05:00;5.80;99.90
45137;DHT22;30894;51.740;19.498;2024-01-25T01:07:29;5.80;99.90
45137;DHT22;30894;51.740;19.498;2024-01-25T01:09:56;5.90;99.90
45137;DHT22;30894;51.740;19.498;2024-01-25T01:12:22;5.90;99.90
45137;DHT22;30894;51.740;19.498;2024-01-25T01:14:50;5.80;99.90
45137;DHT22;30894;51.740;19.498;2024-01-25T01:17:17;5.80;99.90
45137;DHT22;30894;51.740;19.498;2024-01-25T01:19:44;5.70;99.90
45137;DHT22;30894;51.740;19.498;2024-01-25T01:22:17;5.60;99.90
45137;DHT22;30894;51.740;19.498;2024-01-25T01:24:44;5.60;99.90
45137;DHT22;30894;51.740;19.498;2024-01-25T01:27:15;5.60;99.90
45137;DHT22;30894;51.740;19.498;2024-01-25T01:29:42;5.70;99.90
45137;DHT22;30894;51.740;19.498;2024-01-25T01:32:08;5.70;99.90
45137;DHT22;30894;51.740;19.498;2024-01-25T01:34:34;5.70;99.90
45137;DHT22;30894;51.740;19.498;2024-01-25T01:37:01;5.60;99.90
45137;DHT22;30894;51.740;19.498;2024-01-25T01:39:27;5.50;99.90
45137;DHT22;30894;51.740;19.498;2024-01-25T01:41:59;5.50;99.90
45137;DHT22;30894;51.740;19.498;2024-01-25T01:44:27;5.30;99.90
45137;DHT22;30894;51.740;19.498;2024-01-25T01:46:54;5.30;99.90
45137;DHT22;30894;51.740;19.498;2024-01-25T01:49:23;5.30;99.90
45137;DHT22;30894;51.740;19.498;2024-01-25T01:51:50;5.40;99.90
45137;DHT22;30894;51.740;19.498;2024-01-25T01:54:16;5.40;99.90
45137;DHT22;30894;51.740;19.498;2024-01-25T01:56:46;5.50;99.90
45137;DHT22;30894;51.740;19.498;2024-01-25T01:59:12;5.60;99.90
45137;DHT22;30894;51.740;19.498;2024-01-25T02:01:39;5.80;99.90
45137;DHT22;30894;51.740;19.498;2024-01-25T02:04:05;5.70;99.90
45137;DHT22;30894;51.740;19.498;2024-01-25T02:06:31;5.70;99.90
45137;DHT22;30894;51.740;19.498;2024-01-25T02:09:01;5.70;99.90
45137;DHT22;30894;51.740;19.498;2024-01-25T02:11:28;5.70;99.90
45137;DHT22;30894;51.740;19.498;2024-01-25T02:13:58;5.70;99.90
45137;DHT22;30894;51.740;19.498;2024-01-25T02:16:27;5.70;99.90
45137;DHT22;30894;51.740;19.498;2024-01-25T02:18:53;5.70;99.90
45137;DHT22;30894;51.740;19.498;2024-01-25T02:21:23;5.70;99.90
45137;DHT22;30894;51.740;19.498;2024-01-25T02:23:50;5.70;99.90
45137;DHT22;30894;51.740;19.498;2024-01-25T02:26:17;5.70;99.90
45137;DHT22;30894;51.740;19.498;2024-01-25T02:28:43;5.70;99.90
45137;DHT22;30894;51.740;19.498;2024-01-25T02:31:10;5.70;99.90
45137;DHT22;30894;51.740;19.498;2024-01-25T02:33:36;5.80;99.90
45137;DHT22;30894;51.740;19.498;2024-01-25T02:36:02;5.70;99.90
45137;DHT22;30894;51.740;19.498;2024-01-25T02:38:29;5.60;99.90
45137;DHT22;30894;51.740;19.498;2024-01-25T02:40:56;5.50;99.90
45137;DHT22;30894;51.740;19.498;2024-01-25T02:43:22;5.40;99.90
45137;DHT22;30894;51.740;19.498;2024-01-25T02:45:49;5.30;99.90
45137;DHT22;30894;51.740;19.498;2024-01-25T02:48:16;5.30;99.90
45137;DHT22;30894;51.740;19.498;2024-01-25T02:50:43;5.30;99.90
45137;DHT22;30894;51.740;19.498;2024-01-25T02:53:09;5.30;99.90
45137;DHT22;30894;51.740;19.498;2024-01-25T02:55:35;5.40;99.90
45137;DHT22;30894;51.740;19.498;2024-01-25T02:58:01;5.40;99.90
45137;DHT22;30894;51.740;19.498;2024-01-25T03:00:31;5.40;99.90
45137;DHT22;30894;51.740;19.498;2024-01-25T03:02:57;5.30;99.90
45137;DHT22;30894;51.740;19.498;2024-01-25T03:05:26;5.20;99.90
45137;DHT22;30894;51.740;19.498;2024-01-25T03:07:52;5.10;99.90
45137;DHT22;30894;51.740;19.498;2024-01-25T03:10:22;5.10;99.90
45137;DHT22;30894;51.740;19.498;2024-01-25T03:12:49;5.10;99.90
45137;DHT22;30894;51.740;19.498;2024-01-25T03:15:16;5.10;99.90
45137;DHT22;30894;51.740;19.498;2024-01-25T03:17:42;5.20;99.90
45137;DHT22;30894;51.740;19.498;2024-01-25T03:20:09;5.20;99.90
45137;DHT22;30894;51.740;19.498;2024-01-25T03:22:36;5.20;99.90
45137;DHT22;30894;51.740;19.498;2024-01-25T03:25:02;5.30;99.90
45137;DHT22;30894;51.740;19.498;2024-01-25T03:27:30;5.30;99.90
45137;DHT22;30894;51.740;19.498;2024-01-25T03:29:57;5.30;99.90
45137;DHT22;30894;51.740;19.498;2024-01-25T03:32:23;5.30;99.90
45137;DHT22;30894;51.740;19.498;2024-01-25T03:34:50;5.30;99.90
45137;DHT22;30894;51.740;19.498;2024-01-25T03:37:16;5.30;99.90
45137;DHT22;30894;51.740;19.498;2024-01-25T03:39:42;5.30;99.90
45137;DHT22;30894;51.740;19.498;2024-01-25T03:42:11;5.30;99.90
45137;DHT22;30894;51.740;19.498;2024-01-25T03:44:38;5.30;99.90
45137;DHT22;30894;51.740;19.498;2024-01-25T03:47:04;5.30;99.90
45137;DHT22;30894;51.740;19.498;2024-01-25T03:49:31;5.30;99.90
45137;DHT22;30894;51.740;19.498;2024-01-25T03:51:57;5.30;99.90
45137;DHT22;30894;51.740;19.498;2024-01-25T03:54:24;5.30;99.90
45137;DHT22;30894;51.740;19.498;2024-01-25T03:56:50;5.40;99.90
45137;DHT22;30894;51.740;19.498;2024-01-25T03:59:19;5.40;99.90
45137;DHT22;30894;51.740;19.498;2024-01-25T04:01:45;5.40;99.90
45137;DHT22;30894;51.740;19.498;2024-01-25T04:04:15;5.40;99.90
45137;DHT22;30894;51.740;19.498;2024-01-25T04:06:42;5.40;99.90
45137;DHT22;30894;51.740;19.498;2024-01-25T04:09:12;5.40;99.90
45137;DHT22;30894;51.740;19.498;2024-01-25T04:11:38;5.40;99.90
45137;DHT22;30894;51.740;19.498;2024-01-25T04:14:08;5.40;99.90
45137;DHT22;30894;51.740;19.498;2024-01-25T04:16:34;5.50;99.90
45137;DHT22;30894;51.740;19.498;2024-01-25T04:19:01;5.40;99.90
45137;DHT22;30894;51.740;19.498;2024-01-25T04:21:28;5.40;99.90
45137;DHT22;30894;51.740;19.498;2024-01-25T04:23:54;5.40;99.90
45137;DHT22;30894;51.740;19.498;2024-01-25T04:26:21;5.50;99.90
45137;DHT22;30894;51.740;19.498;2024-01-25T04:28:47;5.40;99.90
45137;DHT22;30894;51.740;19.498;2024-01-25T04:31:13;5.40;99.90
45137;DHT22;30894;51.740;19.498;2024-01-25T04:33:40;5.40;99.90
45137;DHT22;30894;51.740;19.498;2024-01-25T04:36:06;5.50;99.90
45137;DHT22;30894;51.740;19.498;2024-01-25T04:38:33;5.50;99.90
45137;DHT22;30894;51.740;19.498;2024-01-25T04:41:02;5.50;99.90
45137;DHT22;30894;51.740;19.498;2024-01-25T04:43:38;5.40;99.90
45137;DHT22;30894;51.740;19.498;2024-01-25T04:46:07;5.50;99.90
45137;DHT22;30894;51.740;19.498;2024-01-25T04:48:36;5.50;99.90
45137;DHT22;30894;51.740;19.498;2024-01-25T04:51:02;5.50;99.90
45137;DHT22;30894;51.740;19.498;2024-01-25T04:53:30;5.50;99.90
45137;DHT22;30894;51.740;19.498;2024-01-25T04:55:56;5.50;99.90
45137;DHT22;30894;51.740;19.498;2024-01-25T04:58:22;5.40;99.90
45137;DHT22;30894;51.740;19.498;2024-01-25T05:00:49;5.40;99.90
45137;DHT22;30894;51.740;19.498;2024-01-25T05:03:16;5.30;99.90
45137;DHT22;30894;51.740;19.498;2024-01-25T05:05:42;5.30;99.90
45137;DHT22;30894;51.740;19.498;2024-01-25T05:08:09;5.30;99.90
45137;DHT22;30894;51.740;19.498;2024-01-25T05:10:36;5.40;99.90
45137;DHT22;30894;51.740;19.498;2024-01-25T05:13:02;5.40;99.90
45137;DHT22;30894;51.740;19.498;2024-01-25T05:15:28;5.40;99.90
45137;DHT22;30894;51.740;19.498;2024-01-25T05:17:57;5.40;99.90
45137;DHT22;30894;51.740;19.498;2024-01-25T05:20:26;5.40;99.90
45137;DHT22;30894;51.740;19.498;2024-01-25T05:23:02;5.40;99.90
45137;DHT22;30894;51.740;19.498;2024-01-25T05:25:29;5.40;99.90
45137;DHT22;30894;51.740;19.498;2024-01-25T05:28:02;5.50;99.90
45137;DHT22;30894;51.740;19.498;2024-01-25T05:30:31;5.40;99.90
45137;DHT22;30894;51.740;19.498;2024-01-25T05:32:58;5.30;99.90
45137;DHT22;30894;51.740;19.498;2024-01-25T05:35:24;5.30;99.90
45137;DHT22;30894;51.740;19.498;2024-01-25T05:37:54;5.20;99.90
45137;DHT22;30894;51.740;19.498;2024-01-25T05:40:20;5.10;99.90
45137;DHT22;30894;51.740;19.498;2024-01-25T05:42:47;5.00;99.90
45137;DHT22;30894;51.740;19.498;2024-01-25T05:45:13;5.00;99.90
45137;DHT22;30894;51.740;19.498;2024-01-25T05:47:40;4.90;99.90
45137;DHT22;30894;51.740;19.498;2024-01-25T05:50:07;4.80;99.90
45137;DHT22;30894;51.740;19.498;2024-01-25T05:52:33;4.70;99.90
45137;DHT22;30894;51.740;19.498;2024-01-25T05:55:06;4.60;99.90
45137;DHT22;30894;51.740;19.498;2024-01-25T05:57:35;4.50;99.90
45137;DHT22;30894;51.740;19.498;2024-01-25T06:00:07;4.50;99.90
45137;DHT22;30894;51.740;19.498;2024-01-25T06:02:36;4.40;99.90
45137;DHT22;30894;51.740;19.498;2024-01-25T06:05:06;4.40;99.90
45137;DHT22;30894;51.740;19.498;2024-01-25T06:07:32;4.30;99.90
45137;DHT22;30894;51.740;19.498;2024-01-25T06:10:04;4.30;99.90
45137;DHT22;30894;51.740;19.498;2024-01-25T06:12:32;4.20;99.90
45137;DHT22;30894;51.740;19.498;2024-01-25T06:14:58;4.20;99.90
45137;DHT22;30894;51.740;19.498;2024-01-25T06:17:26;4.20;99.90
45137;DHT22;30894;51.740;19.498;2024-01-25T06:19:55;4.20;99.90
45137;DHT22;30894;51.740;19.498;2024-01-25T06:22:24;4.20;99.90
45137;DHT22;30894;51.740;19.498;2024-01-25T06:24:52;4.10;99.90
45137;DHT22;30894;51.740;19.498;2024-01-25T06:27:20;4.10;99.90
45137;DHT22;30894;51.740;19.498;2024-01-25T06:29:47;4.00;99.90
45137;DHT22;30894;51.740;19.498;2024-01-25T06:32:14;4.00;99.90
45137;DHT22;30894;51.740;19.498;2024-01-25T06:34:40;3.90;99.90
45137;DHT22;30894;51.740;19.498;2024-01-25T06:37:09;3.90;99.90
45137;DHT22;30894;51.740;19.498;2024-01-25T06:39:41;3.90;99.90
45137;DHT22;30894;51.740;19.498;2024-01-25T06:42:10;3.90;99.90
45137;DHT22;30894;51.740;19.498;2024-01-25T06:44:39;3.90;99.90
45137;DHT22;30894;51.740;19.498;2024-01-25T06:47:05;3.90;99.90
45137;DHT22;30894;51.740;19.498;2024-01-25T06:49:33;3.90;99.90
45137;DHT22;30894;51.740;19.498;2024-01-25T06:52:01;3.90;99.90
45137;DHT22;30894;51.740;19.498;2024-01-25T06:54:27;3.90;99.90
45137;DHT22;30894;51.740;19.498;2024-01-25T06:56:53;3.90;99.90
45137;DHT22;30894;51.740;19.498;2024-01-25T06:59:22;3.90;99.90
45137;DHT22;30894;51.740;19.498;2024-01-25T07:01:50;3.90;99.90
45137;DHT22;30894;51.740;19.498;2024-01-25T07:04:17;3.90;99.90
45137;DHT22;30894;51.740;19.498;2024-01-25T07:06:45;3.90;99.90
45137;DHT22;30894;51.740;19.498;2024-01-25T07:09:11;3.90;99.90
45137;DHT22;30894;51.740;19.498;2024-01-25T07:11:38;3.90;99.90
45137;DHT22;30894;51.740;19.498;2024-01-25T07:14:04;3.90;99.90
45137;DHT22;30894;51.740;19.498;2024-01-25T07:16:30;3.90;99.90
45137;DHT22;30894;51.740;19.498;2024-01-25T07:18:56;3.90;99.90
45137;DHT22;30894;51.740;19.498;2024-01-25T07:21:26;3.90;99.90
45137;DHT22;30894;51.740;19.498;2024-01-25T07:23:52;3.90;99.90
45137;DHT22;30894;51.740;19.498;2024-01-25T07:26:19;4.00;99.90
45137;DHT22;30894;51.740;19.498;2024-01-25T07:28:55;4.00;99.90
45137;DHT22;30894;51.740;19.498;2024-01-25T07:31:26;4.00;99.90
45137;DHT22;30894;51.740;19.498;2024-01-25T07:33:55;4.00;99.90
45137;DHT22;30894;51.740;19.498;2024-01-25T07:36:24;4.00;99.90
45137;DHT22;30894;51.740;19.498;2024-01-25T07:38:59;4.00;99.90
45137;DHT22;30894;51.740;19.498;2024-01-25T07:41:27;4.10;99.90
45137;DHT22;30894;51.740;19.498;2024-01-25T07:43:53;4.10;99.90
45137;DHT22;30894;51.740;19.498;2024-01-25T07:46:21;4.10;99.90
45137;DHT22;30894;51.740;19.498;2024-01-25T07:48:56;4.10;99.90
45137;DHT22;30894;51.740;19.498;2024-01-25T07:51:26;4.10;99.90
45137;DHT22;30894;51.740;19.498;2024-01-25T07:53:55;4.10;99.90
45137;DHT22;30894;51.740;19.498;2024-01-25T07:56:22;4.10;99.90
45137;DHT22;30894;51.740;19.498;2024-01-25T07:58:53;4.10;99.90
45137;DHT22;30894;51.740;19.498;2024-01-25T08:01:21;4.10;99.90
45137;DHT22;30894;51.740;19.498;2024-01-25T08:03:53;4.10;99.90
45137;DHT22;30894;51.740;19.498;2024-01-25T08:06:40;4.10;99.90
45137;DHT22;30894;51.740;19.498;2024-01-25T08:09:11;4.10;99.90
45137;DHT22;30894;51.740;19.498;2024-01-25T08:11:42;4.00;99.90
45137;DHT22;30894;51.740;19.498;2024-01-25T08:14:19;4.10;99.90
45137;DHT22;30894;51.740;19.498;2024-01-25T08:17:26;4.10;99.90
45137;DHT22;30894;51.740;19.498;2024-01-25T08:19:57;4.10;99.90
45137;DHT22;30894;51.740;19.498;2024-01-25T08:22:24;4.10;99.90
45137;DHT22;30894;51.740;19.498;2024-01-25T08:24:54;4.10;99.90
45137;DHT22;30894;51.740;19.498;2024-01-25T08:27:24;4.10;99.90
45137;DHT22;30894;51.740;19.498;2024-01-25T08:29:51;4.10;99.90
45137;DHT22;30894;51.740;19.498;2024-01-25T08:32:17;4.10;99.90
45137;DHT22;30894;51.740;19.498;2024-01-25T08:34:47;4.10;99.90
45137;DHT22;30894;51.740;19.498;2024-01-25T08:37:13;4.10;99.90
45137;DHT22;30894;51.740;19.498;2024-01-25T08:39:40;4.10;99.90
45137;DHT22;30894;51.740;19.498;2024-01-25T08:42:06;4.10;99.90
45137;DHT22;30894;51.740;19.498;2024-01-25T08:44:33;4.10;99.90
45137;DHT22;30894;51.740;19.498;2024-01-25T08:46:59;4.10;99.90
45137;DHT22;30894;51.740;19.498;2024-01-25T08:49:25;4.10;99.90
45137;DHT22;30894;51.740;19.498;2024-01-25T08:51:51;4.10;99.90
45137;DHT22;30894;51.740;19.498;2024-01-25T08:54:20;4.10;99.90
45137;DHT22;30894;51.740;19.498;2024-01-25T08:56:46;4.20;99.90
45137;DHT22;30894;51.740;19.498;2024-01-25T08:59:12;4.20;99.90
45137;DHT22;30894;51.740;19.498;2024-01-25T09:01:38;4.30;99.90
45137;DHT22;30894;51.740;19.498;2024-01-25T09:04:05;4.20;99.90
45137;DHT22;30894;51.740;19.498;2024-01-25T09:06:31;4.30;99.90
45137;DHT22;30894;51.740;19.498;2024-01-25T09:08:57;4.20;99.90
45137;DHT22;30894;51.740;19.498;2024-01-25T09:11:23;4.20;99.90
45137;DHT22;30894;51.740;19.498;2024-01-25T09:13:50;4.30;99.90
45137;DHT22;30894;51.740;19.498;2024-01-25T09:16:16;4.30;99.90
45137;DHT22;30894;51.740;19.498;2024-01-25T09:18:43;4.30;99.90
45137;DHT22;30894;51.740;19.498;2024-01-25T09:21:09;4.30;99.90
45137;DHT22;30894;51.740;19.498;2024-01-25T09:23:36;4.30;99.90
45137;DHT22;30894;51.740;19.498;2024-01-25T09:26:02;4.40;99.90
45137;DHT22;30894;51.740;19.498;2024-01-25T09:28:30;4.40;99.90
45137;DHT22;30894;51.740;19.498;2024-01-25T09:30:58;4.40;99.90
45137;DHT22;30894;51.740;19.498;2024-01-25T09:33:26;4.40;99.90
45137;DHT22;30894;51.740;19.498;2024-01-25T09:35:52;4.40;99.90
45137;DHT22;30894;51.740;19.498;2024-01-25T09:38:20;4.40;99.90
45137;DHT22;30894;51.740;19.498;2024-01-25T09:40:46;4.40;99.90
45137;DHT22;30894;51.740;19.498;2024-01-25T09:43:14;4.50;99.90
45137;DHT22;30894;51.740;19.498;2024-01-25T09:45:41;4.50;99.90
45137;DHT22;30894;51.740;19.498;2024-01-25T09:48:08;4.50;99.90
45137;DHT22;30894;51.740;19.498;2024-01-25T09:50:34;4.60;99.90
45137;DHT22;30894;51.740;19.498;2024-01-25T09:53:00;4.60;99.90
45137;DHT22;30894;51.740;19.498;2024-01-25T09:55:30;4.60;99.90
45137;DHT22;30894;51.740;19.498;2024-01-25T09:57:59;4.60;99.90
45137;DHT22;30894;51.740;19.498;2024-01-25T10:00:25;4.70;99.90
45137;DHT22;30894;51.740;19.498;2024-01-25T10:02:52;4.80;99.90
45137;DHT22;30894;51.740;19.498;2024-01-25T10:05:18;4.90;99.90
45137;DHT22;30894;51.740;19.498;2024-01-25T10:07:46;4.90;99.90
45137;DHT22;30894;51.740;19.498;2024-01-25T10:10:13;4.90;99.90
45137;DHT22;30894;51.740;19.498;2024-01-25T10:12:43;4.90;99.90
45137;DHT22;30894;51.740;19.498;2024-01-25T10:15:10;5.00;99.90
45137;DHT22;30894;51.740;19.498;2024-01-25T10:17:36;5.00;99.90
45137;DHT22;30894;51.740;19.498;2024-01-25T10:20:05;5.00;99.90
45137;DHT22;30894;51.740;19.498;2024-01-25T10:22:37;5.00;99.90
45137;DHT22;30894;51.740;19.498;2024-01-25T10:25:06;5.10;99.90
45137;DHT22;30894;51.740;19.498;2024-01-25T10:27:38;5.10;99.90
45137;DHT22;30894;51.740;19.498;2024-01-25T10:30:09;5.10;99.90
45137;DHT22;30894;51.740;19.498;2024-01-25T10:32:37;5.00;99.90
45137;DHT22;30894;51.740;19.498;2024-01-25T10:35:03;5.10;99.90
45137;DHT22;30894;51.740;19.498;2024-01-25T10:37:30;5.00;99.90
45137;DHT22;30894;51.740;19.498;2024-01-25T10:40:04;5.00;99.90
45137;DHT22;30894;51.740;19.498;2024-01-25T10:42:34;5.00;99.90
45137;DHT22;30894;51.740;19.498;2024-01-25T10:45:01;5.00;99.90
45137;DHT22;30894;51.740;19.498;2024-01-25T10:47:30;5.00;99.90
45137;DHT22;30894;51.740;19.498;2024-01-25T10:50:01;5.00;99.90
45137;DHT22;30894;51.740;19.498;2024-01-25T10:52:31;4.90;99.90
45137;DHT22;30894;51.740;19.498;2024-01-25T10:54:58;4.90;99.90
45137;DHT22;30894;51.740;19.498;2024-01-25T10:57:27;4.90;99.90
45137;DHT22;30894;51.740;19.498;2024-01-25T11:00:12;4.90;99.90
45137;DHT22;30894;51.740;19.498;2024-01-25T11:02:44;4.80;99.90
45137;DHT22;30894;51.740;19.498;2024-01-25T11:05:12;4.80;99.90
45137;DHT22;30894;51.740;19.498;2024-01-25T11:07:46;4.80;99.90
45137;DHT22;30894;51.740;19.498;2024-01-25T11:10:21;4.80;99.90
45137;DHT22;30894;51.740;19.498;2024-01-25T11:13:00;4.80;99.90
45137;DHT22;30894;51.740;19.498;2024-01-25T11:15:31;4.70;99.90
45137;DHT22;30894;51.740;19.498;2024-01-25T11:18:07;4.70;99.90
45137;DHT22;30894;51.740;19.498;2024-01-25T11:20:42;4.70;99.90
45137;DHT22;30894;51.740;19.498;2024-01-25T11:23:08;4.70;99.90
45137;DHT22;30894;51.740;19.498;2024-01-25T11:25:36;4.70;99.90
45137;DHT22;30894;51.740;19.498;2024-01-25T11:28:05;4.70;99.90
45137;DHT22;30894;51.740;19.498;2024-01-25T11:30:34;4.70;99.90
45137;DHT22;30894;51.740;19.498;2024-01-25T11:33:04;4.80;99.90
45137;DHT22;30894;51.740;19.498;2024-01-25T11:35:31;4.80;99.90
45137;DHT22;30894;51.740;19.498;2024-01-25T11:37:57;4.80;99.90
45137;DHT22;30894;51.740;19.498;2024-01-25T11:40:23;4.80;99.90
45137;DHT22;30894;51.740;19.498;2024-01-25T11:42:53;4.80;99.90
45137;DHT22;30894;51.740;19.498;2024-01-25T11:45:22;4.80;99.90
45137;DHT22;30894;51.740;19.498;2024-01-25T11:47:52;4.90;99.90
45137;DHT22;30894;51.740;19.498;2024-01-25T11:50:18;4.90;99.90
45137;DHT22;30894;51.740;19.498;2024-01-25T11:52:44;4.90;99.90
45137;DHT22;30894;51.740;19.498;2024-01-25T11:55:10;4.90;99.90
45137;DHT22;30894;51.740;19.498;2024-01-25T11:57:38;4.80;99.90
45137;DHT22;30894;51.740;19.498;2024-01-25T12:00:14;4.80;99.90
45137;DHT22;30894;51.740;19.498;2024-01-25T12:02:42;4.80;99.90
45137;DHT22;30894;51.740;19.498;2024-01-25T12:05:10;4.80;99.90
45137;DHT22;30894;51.740;19.498;2024-01-25T12:07:39;4.70;99.90
45137;DHT22;30894;51.740;19.498;2024-01-25T12:10:07;4.70;99.90
45137;DHT22;30894;51.740;19.498;2024-01-25T12:12:37;4.70;99.90
45137;DHT22;30894;51.740;19.498;2024-01-25T12:15:08;4.70;99.90
45137;DHT22;30894;51.740;19.498;2024-01-25T12:17:35;4.70;99.90
45137;DHT22;30894;51.740;19.498;2024-01-25T12:20:07;4.70;99.90
45137;DHT22;30894;51.740;19.498;2024-01-25T12:22:41;4.70;99.90
45137;DHT22;30894;51.740;19.498;2024-01-25T12:25:10;4.70;99.90
45137;DHT22;30894;51.740;19.498;2024-01-25T12:27:36;4.60;99.90
45137;DHT22;30894;51.740;19.498;2024-01-25T12:30:04;4.50;99.90
45137;DHT22;30894;51.740;19.498;2024-01-25T12:32:31;4.60;99.90
45137;DHT22;30894;51.740;19.498;2024-01-25T12:34:58;4.70;99.90
45137;DHT22;30894;51.740;19.498;2024-01-25T12:37:27;4.50;99.90
45137;DHT22;30894;51.740;19.498;2024-01-25T12:39:53;4.60;99.90
45137;DHT22;30894;51.740;19.498;2024-01-25T12:42:21;4.60;99.90
45137;DHT22;30894;51.740;19.498;2024-01-25T12:44:47;4.50;99.90
45137;DHT22;30894;51.740;19.498;2024-01-25T12:47:14;4.60;99.90
45137;DHT22;30894;51.740;19.498;2024-01-25T12:49:41;4.60;99.90
45137;DHT22;30894;51.740;19.498;2024-01-25T12:52:13;4.60;99.90
45137;DHT22;30894;51.740;19.498;2024-01-25T12:54:41;4.60;99.90
45137;DHT22;30894;51.740;19.498;2024-01-25T12:57:07;4.50;99.90
45137;DHT22;30894;51.740;19.498;2024-01-25T12:59:35;4.50;99.90
45137;DHT22;30894;51.740;19.498;2024-01-25T13:02:02;4.50;99.90
45137;DHT22;30894;51.740;19.498;2024-01-25T13:04:28;4.50;99.90
45137;DHT22;30894;51.740;19.498;2024-01-25T13:06:55;4.50;99.90
45137;DHT22;30894;51.740;19.498;2024-01-25T13:09:22;4.50;99.90
45137;DHT22;30894;51.740;19.498;2024-01-25T13:11:50;4.40;99.90
45137;DHT22;30894;51.740;19.498;2024-01-25T13:14:18;4.40;99.90
45137;DHT22;30894;51.740;19.498;2024-01-25T13:16:45;4.40;99.90
45137;DHT22;30894;51.740;19.498;2024-01-25T13:19:11;4.40;99.90
45137;DHT22;30894;51.740;19.498;2024-01-25T13:21:38;4.40;99.90
45137;DHT22;30894;51.740;19.498;2024-01-25T13:24:05;4.40;99.90
45137;DHT22;30894;51.740;19.498;2024-01-25T13:26:35;4.40;99.90
45137;DHT22;30894;51.740;19.498;2024-01-25T13:29:01;4.40;99.90
45137;DHT22;30894;51.740;19.498;2024-01-25T13:31:27;4.40;99.90
45137;DHT22;30894;51.740;19.498;2024-01-25T13:33:54;4.40;99.90
45137;DHT22;30894;51.740;19.498;2024-01-25T13:36:20;4.40;99.90
45137;DHT22;30894;51.740;19.498;2024-01-25T13:38:46;4.40;99.90
45137;DHT22;30894;51.740;19.498;2024-01-25T13:41:13;4.50;99.90
45137;DHT22;30894;51.740;19.498;2024-01-25T13:43:39;4.40;99.90
45137;DHT22;30894;51.740;19.498;2024-01-25T13:46:05;4.40;99.90
45137;DHT22;30894;51.740;19.498;2024-01-25T13:48:31;4.40;99.90
45137;DHT22;30894;51.740;19.498;2024-01-25T13:50:58;4.40;99.90
45137;DHT22;30894;51.740;19.498;2024-01-25T13:53:24;4.40;99.90
45137;DHT22;30894;51.740;19.498;2024-01-25T13:55:50;4.40;99.90
45137;DHT22;30894;51.740;19.498;2024-01-25T13:58:16;4.40;99.90
45137;DHT22;30894;51.740;19.498;2024-01-25T14:00:43;4.30;99.90
45137;DHT22;30894;51.740;19.498;2024-01-25T14:03:09;4.40;99.90
45137;DHT22;30894;51.740;19.498;2024-01-25T14:05:35;4.30;99.90
45137;DHT22;30894;51.740;19.498;2024-01-25T14:08:01;4.30;99.90
45137;DHT22;30894;51.740;19.498;2024-01-25T14:10:28;4.30;99.90
45137;DHT22;30894;51.740;19.498;2024-01-25T14:12:54;4.30;99.90
45137;DHT22;30894;51.740;19.498;2024-01-25T14:15:21;4.30;99.90
45137;DHT22;30894;51.740;19.498;2024-01-25T14:17:47;4.20;99.90
45137;DHT22;30894;51.740;19.498;2024-01-25T14:20:18;4.20;99.90
45137;DHT22;30894;51.740;19.498;2024-01-25T14:22:45;4.20;99.90
45137;DHT22;30894;51.740;19.498;2024-01-25T14:25:11;4.20;99.90
45137;DHT22;30894;51.740;19.498;2024-01-25T14:27:37;4.20;99.90
45137;DHT22;30894;51.740;19.498;2024-01-25T14:30:05;4.20;99.90
45137;DHT22;30894;51.740;19.498;2024-01-25T14:32:32;4.20;99.90
45137;DHT22;30894;51.740;19.498;2024-01-25T14:34:59;4.20;99.90
45137;DHT22;30894;51.740;19.498;2024-01-25T14:37:25;4.10;99.90
45137;DHT22;30894;51.740;19.498;2024-01-25T14:39:52;4.10;99.90
45137;DHT22;30894;51.740;19.498;2024-01-25T14:42:18;4.10;99.90
45137;DHT22;30894;51.740;19.498;2024-01-25T14:44:44;4.10;99.90
45137;DHT22;30894;51.740;19.498;2024-01-25T14:47:10;4.10;99.90
45137;DHT22;30894;51.740;19.498;2024-01-25T14:49:38;4.10;99.90
45137;DHT22;30894;51.740;19.498;2024-01-25T14:52:04;4.10;99.90
45137;DHT22;30894;51.740;19.498;2024-01-25T14:54:31;4.10;99.90
45137;DHT22;30894;51.740;19.498;2024-01-25T14:56:57;4.10;99.90
45137;DHT22;30894;51.740;19.498;2024-01-25T14:59:23;4.10;99.90
45137;DHT22;30894;51.740;19.498;2024-01-25T15:01:51;4.10;99.90
45137;DHT22;30894;51.740;19.498;2024-01-25T15:04:17;4.10;99.90
45137;DHT22;30894;51.740;19.498;2024-01-25T15:06:43;4.10;99.90
45137;DHT22;30894;51.740;19.498;2024-01-25T15:09:10;4.00;99.90
45137;DHT22;30894;51.740;19.498;2024-01-25T15:11:36;4.00;99.90
45137;DHT22;30894;51.740;19.498;2024-01-25T15:14:02;4.00;99.90
45137;DHT22;30894;51.740;19.498;2024-01-25T15:16:28;4.00;99.90
45137;DHT22;30894;51.740;19.498;2024-01-25T15:18:57;4.00;99.90
45137;DHT22;30894;51.740;19.498;2024-01-25T15:21:23;4.00;99.90
45137;DHT22;30894;51.740;19.498;2024-01-25T15:23:50;4.00;99.90
45137;DHT22;30894;51.740;19.498;2024-01-25T15:26:19;4.00;99.90
45137;DHT22;30894;51.740;19.498;2024-01-25T15:28:48;4.00;99.90
45137;DHT22;30894;51.740;19.498;2024-01-25T15:31:17;3.90;99.90
45137;DHT22;30894;51.740;19.498;2024-01-25T15:33:44;4.00;99.90